Crumley Crossing, Indiana
Current Conditions -  °F | °C
As of 10:53 PM on Tuesday 21 Oct 2014 (Local Time) from KMIE Reporting Station
Overcast Overcast  
Wind Chill: 43°   Ceiling: 3600
Heat Index: 48°   Visibility: 10mi
Dew Point: 38°   Wind: 10mph
Humidity: 68%   Direction: 40°NE
Pressure: 30.21"   Gusts: NA
Location:  40.3769°N, 85.2018°W
Report Text: KMIE 220253Z AUTO 04009KT 10SM OVC036 09/03 A3021 RMK AO2 SLP227 T00890033 51019
Loading
Personal Weather Stations






























Interactive Weather Map
Tropical Storm Tracking
New forecast layout! Learn more

10-Day Weather Forecast

Advertisements
Track Severe Weather on mobile